createdAt,value
2019-02-07T00:00:35.484Z,65.67
2019-02-07T00:03:03.078Z,73.87
2019-02-07T00:05:30.569Z,65.57
2019-02-07T00:07:58.027Z,75.03
2019-02-07T00:10:25.624Z,70.60
2019-02-07T00:12:53.476Z,67.20
2019-02-07T00:15:20.925Z,72.33
2019-02-07T00:17:48.605Z,73.83
2019-02-07T00:20:16.291Z,71.63
2019-02-07T00:22:43.865Z,74.67
2019-02-07T00:25:11.358Z,69.63
2019-02-07T00:27:38.824Z,68.53
2019-02-07T00:30:09.174Z,74.67
2019-02-07T00:32:36.655Z,68.33
2019-02-07T00:35:05.264Z,70.00
2019-02-07T00:37:32.751Z,66.27
2019-02-07T00:40:00.317Z,62.57
2019-02-07T00:42:27.816Z,74.13
2019-02-07T00:44:55.309Z,84.17
2019-02-07T00:47:23.092Z,63.83
2019-02-07T00:49:50.595Z,69.83
2019-02-07T00:52:18.048Z,81.50
2019-02-07T00:54:45.541Z,67.63
2019-02-07T00:57:13.227Z,76.87
2019-02-07T00:59:40.802Z,77.00
2019-02-07T01:02:08.461Z,79.23
2019-02-07T01:04:36.108Z,75.37
2019-02-07T01:07:03.780Z,81.87
2019-02-07T01:09:34.103Z,77.10
2019-02-07T01:12:01.624Z,81.87
2019-02-07T01:14:29.075Z,80.07
2019-02-07T01:16:56.525Z,86.93
2019-02-07T01:19:24.047Z,96.27
2019-02-07T01:21:51.532Z,74.47
2019-02-07T01:24:18.981Z,86.20
2019-02-07T01:26:46.464Z,87.27
2019-02-07T01:29:13.903Z,84.60
2019-02-07T01:31:41.407Z,91.93
2019-02-07T01:34:08.876Z,103.93
2019-02-07T01:36:36.367Z,86.97
2019-02-07T01:39:07.132Z,87.60
2019-02-07T01:41:35.043Z,85.30
2019-02-07T01:44:02.554Z,90.67
2019-02-07T01:46:30.020Z,82.83
2019-02-07T01:48:57.538Z,106.27
2019-02-07T01:51:24.981Z,77.80
2019-02-07T01:53:52.466Z,85.03
2019-02-07T01:56:19.954Z,81.73
2019-02-07T01:58:47.432Z,83.40
2019-02-07T02:01:14.887Z,90.17
2019-02-07T02:03:42.371Z,87.80
2019-02-07T02:06:09.849Z,86.27
2019-02-07T02:08:37.322Z,90.00
2019-02-07T02:11:04.807Z,102.10
2019-02-07T02:13:32.869Z,91.83
2019-02-07T02:16:00.346Z,101.40
2019-02-07T02:18:27.863Z,70.53
2019-02-07T02:20:56.166Z,59.97
2019-02-07T02:23:23.657Z,83.57
2019-02-07T02:25:51.136Z,91.67
2019-02-07T02:28:18.658Z,86.00
2019-02-07T02:30:46.325Z,91.60
2019-02-07T02:33:13.775Z,85.40
2019-02-07T02:35:41.385Z,140.27
2019-02-07T02:38:08.837Z,88.73
2019-02-07T02:40:36.349Z,100.53
2019-02-07T02:43:03.850Z,105.53
2019-02-07T02:45:37.418Z,97.70
2019-02-07T02:48:01.044Z,98.53
2019-02-07T02:50:28.548Z,101.40
2019-02-07T02:52:56.016Z,76.30
2019-02-07T02:55:30.549Z,99.60
2019-02-07T02:57:58.161Z,93.17
2019-02-07T03:00:34.719Z,92.33
2019-02-07T03:03:40.139Z,92.07
2019-02-07T03:06:16.389Z,102.27
2019-02-07T03:08:56.932Z,78.03
2019-02-07T03:11:40.501Z,90.93
2019-02-07T03:14:24.408Z,95.33
2019-02-07T03:17:05.006Z,104.33
2019-02-07T03:20:01.076Z,102.73
2019-02-07T03:22:48.073Z,85.17
2019-02-07T03:25:34.138Z,81.20
2019-02-07T03:28:30.357Z,80.03
2019-02-07T03:31:29.932Z,84.80
2019-02-07T03:34:15.710Z,81.80
2019-02-07T03:37:01.731Z,95.73
2019-02-07T03:39:51.727Z,94.37
2019-02-07T03:42:41.783Z,86.27
2019-02-07T03:45:43.859Z,86.13
2019-02-07T03:48:37.249Z,92.07
2019-02-07T03:51:18.604Z,89.27
2019-02-07T03:54:05.599Z,91.97
2019-02-07T03:56:53.441Z,96.57
2019-02-07T03:59:39.445Z,88.63
2019-02-07T04:02:29.430Z,78.90
2019-02-07T04:05:15.122Z,62.90
2019-02-07T04:08:01.151Z,64.10
2019-02-07T04:10:43.227Z,67.77
2019-02-07T04:13:30.635Z,79.00
2019-02-07T04:16:17.803Z,71.60
2019-02-07T04:18:55.619Z,72.90
2019-02-07T04:21:45.596Z,45.37
2019-02-07T04:24:33.496Z,65.07
2019-02-07T04:27:26.602Z,66.37
2019-02-07T04:30:48.163Z,60.97
2019-02-07T04:33:34.155Z,61.47
2019-02-07T04:36:39.561Z,61.57
2019-02-07T04:39:14.244Z,73.63
2019-02-07T04:41:59.745Z,81.47
2019-02-07T04:44:58.722Z,72.13
2019-02-07T04:47:51.518Z,74.97
2019-02-07T04:50:38.505Z,69.73
2019-02-07T04:53:24.157Z,68.87
2019-02-07T04:56:10.250Z,72.70
2019-02-07T04:58:55.179Z,79.03
2019-02-07T05:01:41.033Z,74.27
2019-02-07T05:04:46.335Z,78.53
2019-02-07T05:07:42.374Z,65.00
2019-02-07T05:10:28.281Z,76.47
2019-02-07T05:13:27.344Z,81.03
2019-02-07T05:16:10.388Z,70.90
2019-02-07T05:18:57.309Z,66.00
2019-02-07T05:21:47.542Z,77.33
2019-02-07T05:24:27.650Z,63.93
2019-02-07T05:27:26.323Z,77.70
2019-02-07T05:30:13.310Z,84.07
2019-02-07T05:32:51.301Z,87.60
2019-02-07T05:35:44.157Z,69.73
2019-02-07T05:38:34.148Z,74.40
2019-02-07T05:41:30.026Z,79.80
2019-02-07T05:44:13.129Z,67.03
2019-02-07T05:46:56.614Z,77.77
2019-02-07T05:49:46.924Z,73.10
2019-02-07T05:52:32.763Z,60.90
2019-02-07T05:55:26.056Z,74.30
2019-02-07T05:58:22.269Z,78.57
2019-02-07T06:01:09.608Z,67.20
2019-02-07T06:03:59.289Z,65.60
2019-02-07T06:06:46.921Z,74.63
2019-02-07T06:09:30.711Z,83.33
2019-02-07T06:12:16.636Z,92.00
2019-02-07T06:15:06.648Z,79.33
2019-02-07T06:18:01.959Z,89.10
2019-02-07T06:20:43.111Z,88.90
2019-02-07T06:23:28.753Z,85.00
2019-02-07T06:26:31.109Z,90.37
2019-02-07T06:29:22.895Z,86.47
2019-02-07T06:32:11.279Z,89.27
2019-02-07T06:34:52.841Z,86.73
2019-02-07T06:37:27.085Z,94.30
2019-02-07T06:40:08.067Z,92.67
2019-02-07T06:42:46.568Z,76.77
2019-02-07T06:45:26.181Z,83.50
2019-02-07T06:48:15.265Z,78.77
2019-02-07T06:51:01.347Z,79.80
2019-02-07T06:53:48.314Z,93.10
2019-02-07T06:56:34.528Z,82.53
2019-02-07T06:59:33.548Z,84.43
2019-02-07T07:02:27.142Z,88.27
2019-02-07T07:05:02.375Z,78.30
2019-02-07T07:07:47.968Z,72.20
2019-02-07T07:10:33.623Z,85.27
2019-02-07T07:13:25.996Z,83.70
2019-02-07T07:16:11.765Z,75.77
2019-02-07T07:19:07.868Z,78.47
2019-02-07T07:21:51.895Z,83.17
2019-02-07T07:24:37.325Z,70.63
2019-02-07T07:27:26.050Z,64.17
2019-02-07T07:30:16.027Z,60.03
2019-02-07T07:33:05.792Z,61.63
2019-02-07T07:36:00.328Z,70.17
2019-02-07T07:38:45.710Z,61.00
2019-02-07T07:41:25.716Z,63.80
2019-02-07T07:44:11.366Z,66.70
2019-02-07T07:46:46.861Z,58.43
2019-02-07T07:49:37.473Z,60.33
2019-02-07T07:52:20.175Z,49.67
2019-02-07T07:55:10.173Z,55.77
2019-02-07T07:57:55.854Z,51.07
2019-02-07T08:00:58.101Z,48.50
2019-02-07T08:03:33.710Z,49.23
2019-02-07T08:06:29.845Z,53.53
2019-02-07T08:09:19.066Z,49.30
2019-02-07T08:12:14.619Z,61.33
2019-02-07T08:14:53.826Z,54.73
2019-02-07T08:17:47.153Z,50.20
2019-02-07T08:20:25.501Z,60.80
2019-02-07T08:22:59.179Z,56.20
2019-02-07T08:25:48.932Z,57.47
2019-02-07T08:28:42.389Z,84.97
2019-02-07T08:31:34.381Z,52.20
2019-02-07T08:34:21.365Z,51.23
2019-02-07T08:37:07.487Z,53.83
2019-02-07T08:40:01.118Z,52.17
2019-02-07T08:42:48.133Z,53.33
2019-02-07T08:45:44.149Z,51.10
2019-02-07T08:48:49.439Z,52.20
2019-02-07T08:51:36.766Z,50.83
2019-02-07T08:54:27.019Z,52.43
2019-02-07T08:57:16.775Z,52.93
2019-02-07T09:00:15.514Z,53.73
2019-02-07T09:02:57.164Z,51.40
2019-02-07T09:05:43.118Z,53.37
2019-02-07T09:08:28.818Z,51.97
2019-02-07T09:11:18.775Z,56.10
2019-02-07T09:13:55.907Z,62.03
2019-02-07T09:16:41.496Z,59.23
2019-02-07T09:19:37.693Z,52.37
2019-02-07T09:22:18.924Z,57.87
2019-02-07T09:25:19.946Z,61.00
2019-02-07T09:28:05.658Z,58.50
2019-02-07T09:30:51.445Z,55.33
2019-02-07T09:33:44.554Z,59.97
2019-02-07T09:36:26.253Z,59.17
2019-02-07T09:39:12.240Z,65.40
2019-02-07T09:42:11.559Z,55.43
2019-02-07T09:44:57.526Z,55.80
2019-02-07T09:47:40.369Z,58.97
2019-02-07T09:50:21.224Z,64.33
2019-02-07T09:53:03.641Z,56.80
2019-02-07T09:55:56.502Z,58.23
2019-02-07T09:58:43.456Z,51.27
2019-02-07T10:01:20.719Z,53.77
2019-02-07T10:04:07.708Z,53.00
2019-02-07T10:07:09.840Z,51.13
2019-02-07T10:09:46.118Z,54.97
2019-02-07T10:12:34.881Z,62.13
2019-02-07T10:15:27.934Z,55.00
2019-02-07T10:18:17.634Z,61.43
2019-02-07T10:20:59.187Z,57.97
2019-02-07T10:23:49.244Z,53.37
2019-02-07T10:26:36.241Z,53.07
2019-02-07T10:29:28.943Z,69.63
2019-02-07T10:32:19.696Z,57.87
2019-02-07T10:35:06.699Z,54.23
2019-02-07T10:37:52.332Z,54.60
2019-02-07T10:40:35.434Z,48.93
2019-02-07T10:43:19.943Z,62.00
2019-02-07T10:46:05.514Z,54.67
2019-02-07T10:48:51.361Z,54.07
2019-02-07T10:51:53.746Z,56.57
2019-02-07T10:54:52.824Z,54.77
2019-02-07T10:57:58.154Z,56.77
2019-02-07T11:00:48.282Z,54.40
2019-02-07T11:03:35.269Z,63.07
2019-02-07T11:06:38.181Z,56.07
2019-02-07T11:09:29.308Z,53.10
2019-02-07T11:12:18.897Z,54.60
2019-02-07T11:15:09.163Z,58.73
2019-02-07T11:17:52.011Z,53.33
2019-02-07T11:20:37.701Z,61.60
2019-02-07T11:23:24.806Z,55.17
2019-02-07T11:26:21.122Z,58.77
2019-02-07T11:29:07.155Z,54.17
2019-02-07T11:32:06.362Z,57.67
2019-02-07T11:34:53.680Z,63.53
2019-02-07T11:37:46.804Z,57.97
2019-02-07T11:40:32.828Z,62.07
2019-02-07T11:43:26.802Z,55.00
2019-02-07T11:46:12.299Z,66.33
2019-02-07T11:49:06.548Z,52.47
2019-02-07T11:51:40.770Z,54.50
2019-02-07T11:54:17.146Z,55.93
2019-02-07T11:57:01.490Z,57.13
2019-02-07T11:59:47.208Z,59.83
2019-02-07T12:02:34.419Z,56.00
2019-02-07T12:05:20.745Z,54.43
2019-02-07T12:07:58.567Z,57.53
2019-02-07T12:10:48.072Z,57.53
2019-02-07T12:13:23.788Z,57.73
2019-02-07T12:16:10.805Z,59.13
2019-02-07T12:18:50.485Z,55.33
2019-02-07T12:21:49.465Z,49.27
2019-02-07T12:24:28.690Z,58.30
2019-02-07T12:27:24.359Z,54.13
2019-02-07T12:30:10.084Z,54.13
2019-02-07T12:33:06.394Z,58.83
2019-02-07T12:35:45.485Z,56.20
2019-02-07T12:38:33.674Z,57.73
2019-02-07T12:41:15.808Z,50.97
2019-02-07T12:44:06.262Z,46.00
2019-02-07T12:46:53.440Z,59.07
2019-02-07T12:49:36.309Z,55.50
2019-02-07T12:52:23.541Z,50.73
2019-02-07T12:55:03.002Z,48.67
2019-02-07T12:58:05.215Z,49.07
2019-02-07T13:01:06.573Z,46.13
2019-02-07T13:03:56.335Z,52.17
2019-02-07T13:06:39.981Z,50.37
2019-02-07T13:09:37.820Z,49.23
2019-02-07T13:12:15.836Z,46.57
2019-02-07T13:15:03.223Z,52.47
2019-02-07T13:17:52.128Z,49.80
2019-02-07T13:20:40.653Z,53.60
2019-02-07T13:23:34.091Z,52.33
2019-02-07T13:26:16.924Z,47.43
2019-02-07T13:29:02.917Z,50.07
2019-02-07T13:31:55.982Z,49.90
2019-02-07T13:34:41.426Z,50.73
2019-02-07T13:37:15.799Z,49.73
2019-02-07T13:40:11.747Z,51.63
2019-02-07T13:43:00.075Z,49.67
2019-02-07T13:45:49.215Z,46.20
2019-02-07T13:48:32.493Z,46.53
2019-02-07T13:51:34.609Z,55.23
2019-02-07T13:54:16.385Z,51.57
2019-02-07T13:57:14.633Z,55.93
2019-02-07T14:00:17.045Z,50.47
2019-02-07T14:02:54.405Z,47.50
2019-02-07T14:05:44.327Z,47.77
2019-02-07T14:08:38.503Z,46.60
2019-02-07T14:11:16.811Z,51.33
2019-02-07T14:14:09.731Z,48.90
2019-02-07T14:16:55.649Z,54.00
2019-02-07T14:19:41.828Z,48.07
2019-02-07T14:22:34.799Z,50.20
2019-02-07T14:25:15.759Z,53.83
2019-02-07T14:28:02.722Z,52.20
2019-02-07T14:30:49.727Z,46.17
2019-02-07T14:33:52.105Z,55.33
2019-02-07T14:36:34.635Z,50.67
2019-02-07T14:39:27.457Z,52.37
2019-02-07T14:42:23.651Z,54.13
2019-02-07T14:45:09.228Z,53.60
2019-02-07T14:47:36.735Z,62.60
2019-02-07T14:50:14.556Z,53.33
2019-02-07T14:52:34.499Z,59.23
2019-02-07T14:55:02.004Z,54.47
2019-02-07T14:57:29.539Z,50.90
2019-02-07T14:59:57.418Z,56.63
2019-02-07T15:02:24.875Z,64.13
2019-02-07T15:04:52.357Z,61.13
2019-02-07T15:07:19.839Z,59.43
2019-02-07T15:09:47.337Z,56.27
2019-02-07T15:12:14.898Z,58.70
2019-02-07T15:14:42.421Z,51.07
2019-02-07T15:17:10.199Z,57.23
2019-02-07T15:19:40.744Z,60.23
2019-02-07T15:22:08.374Z,63.43
2019-02-07T15:24:35.873Z,60.50
2019-02-07T15:27:03.926Z,64.70
2019-02-07T15:29:31.466Z,65.47
2019-02-07T15:31:58.941Z,68.33
2019-02-07T15:34:26.763Z,62.50
2019-02-07T15:36:54.740Z,61.07
2019-02-07T15:39:22.235Z,63.90
2019-02-07T15:41:49.711Z,71.33
2019-02-07T15:44:17.295Z,69.97
2019-02-07T15:46:44.825Z,66.93
2019-02-07T15:49:12.512Z,70.80
2019-02-07T15:51:40.500Z,67.70
2019-02-07T15:54:08.073Z,72.93
2019-02-07T15:56:35.612Z,65.73
2019-02-07T15:59:21.412Z,71.90
2019-02-07T16:01:56.513Z,68.07
2019-02-07T16:04:27.120Z,73.00
2019-02-07T16:06:54.845Z,70.63
2019-02-07T16:09:22.332Z,72.23
2019-02-07T16:11:51.830Z,76.17
2019-02-07T16:14:19.149Z,75.77
2019-02-07T16:16:46.609Z,78.70
2019-02-07T16:19:14.473Z,73.50
2019-02-07T16:21:42.009Z,65.53
2019-02-07T16:24:09.541Z,80.87
2019-02-07T16:26:37.007Z,77.30
2019-02-07T16:29:04.532Z,72.30
2019-02-07T16:31:32.125Z,74.77
2019-02-07T16:33:59.584Z,70.40
2019-02-07T16:36:27.080Z,76.67
2019-02-07T16:38:54.570Z,70.97
2019-02-07T16:41:22.533Z,67.80
2019-02-07T16:43:50.232Z,68.50
2019-02-07T16:46:17.957Z,75.67
2019-02-07T16:48:45.494Z,79.90
2019-02-07T16:51:13.070Z,79.97
2019-02-07T16:53:41.240Z,78.30
2019-02-07T16:56:10.015Z,75.10
2019-02-07T16:58:37.642Z,76.10
2019-02-07T17:01:07.822Z,82.47
2019-02-07T17:03:35.655Z,87.53
2019-02-07T17:06:04.087Z,76.87
2019-02-07T17:08:31.892Z,84.07
2019-02-07T17:10:59.729Z,85.77
2019-02-07T17:13:27.434Z,75.53
2019-02-07T17:15:54.920Z,82.23
2019-02-07T17:18:22.407Z,76.77
2019-02-07T17:20:50.322Z,78.50
2019-02-07T17:23:18.046Z,82.03
2019-02-07T17:25:46.047Z,89.17
2019-02-07T17:28:14.215Z,77.33
2019-02-07T17:30:41.877Z,93.53
2019-02-07T17:33:09.556Z,88.33
2019-02-07T17:35:37.492Z,86.43
2019-02-07T17:38:05.139Z,82.83
2019-02-07T17:40:32.804Z,87.33
2019-02-07T17:43:02.528Z,76.87
2019-02-07T17:45:30.517Z,83.10
2019-02-07T17:47:58.101Z,90.17
2019-02-07T17:50:28.484Z,90.63
2019-02-07T17:52:56.357Z,96.60
2019-02-07T17:55:25.422Z,93.13
2019-02-07T17:57:53.002Z,87.93
2019-02-07T18:00:42.919Z,82.40
2019-02-07T18:03:10.922Z,93.53
2019-02-07T18:05:38.557Z,88.63
2019-02-07T18:08:08.590Z,86.93
2019-02-07T18:10:36.286Z,85.93
2019-02-07T18:13:05.099Z,87.57
2019-02-07T18:15:32.612Z,85.93
2019-02-07T18:18:00.515Z,89.20
2019-02-07T18:20:28.194Z,84.87
2019-02-07T18:22:55.800Z,79.23
2019-02-07T18:25:23.286Z,89.17
2019-02-07T18:27:50.786Z,90.23
2019-02-07T18:30:18.620Z,87.57
2019-02-07T18:32:46.310Z,90.70
2019-02-07T18:35:13.965Z,94.97
2019-02-07T18:37:41.482Z,98.93
2019-02-07T18:40:12.208Z,95.30
2019-02-07T18:42:39.708Z,101.47
2019-02-07T18:45:08.468Z,109.00
2019-02-07T18:47:36.234Z,92.77
2019-02-07T18:50:06.207Z,98.20
2019-02-07T18:52:34.117Z,91.10
2019-02-07T18:55:01.633Z,88.77
2019-02-07T18:57:29.201Z,99.70
2019-02-07T18:59:56.711Z,89.97
2019-02-07T19:02:24.165Z,84.47
2019-02-07T19:04:52.050Z,96.10
2019-02-07T19:07:19.582Z,90.83
2019-02-07T19:09:47.120Z,99.87
2019-02-07T19:12:14.602Z,82.47
2019-02-07T19:14:42.114Z,75.77
2019-02-07T19:17:09.651Z,82.90
2019-02-07T19:19:37.163Z,87.00
2019-02-07T19:22:04.799Z,91.83
2019-02-07T19:24:32.618Z,90.43
2019-02-07T19:27:00.130Z,101.60
2019-02-07T19:29:27.687Z,103.17
2019-02-07T19:31:55.193Z,87.77
2019-02-07T19:34:22.748Z,102.80
2019-02-07T19:36:50.183Z,103.80
2019-02-07T19:39:17.699Z,118.03
2019-02-07T19:41:45.516Z,123.27
2019-02-07T19:44:13.002Z,104.87
2019-02-07T19:46:40.939Z,105.17
2019-02-07T19:49:08.448Z,105.90
2019-02-07T19:51:35.933Z,112.40
2019-02-07T19:54:03.554Z,110.37
2019-02-07T19:56:31.056Z,115.23
2019-02-07T19:58:58.544Z,98.67
2019-02-07T20:01:26.099Z,105.00
2019-02-07T20:03:53.667Z,113.83
2019-02-07T20:06:21.161Z,105.43
2019-02-07T20:08:48.683Z,115.10
2019-02-07T20:11:16.213Z,115.37
2019-02-07T20:13:43.676Z,113.37
2019-02-07T20:16:12.449Z,124.27
2019-02-07T20:18:40.358Z,143.13
2019-02-07T20:21:07.882Z,113.97
2019-02-07T20:23:35.420Z,116.13
2019-02-07T20:26:03.135Z,119.83
2019-02-07T20:28:30.641Z,121.07
2019-02-07T20:30:58.179Z,121.33
2019-02-07T20:33:25.711Z,114.00
2019-02-07T20:35:53.207Z,123.97
2019-02-07T20:38:20.913Z,120.87
2019-02-07T20:40:48.398Z,110.40
2019-02-07T20:43:15.932Z,116.13
2019-02-07T20:45:43.418Z,113.70
2019-02-07T20:48:11.045Z,118.40
2019-02-07T20:50:38.527Z,100.40
2019-02-07T20:53:06.652Z,114.63
2019-02-07T20:55:34.248Z,109.37
2019-02-07T20:58:02.178Z,141.10
2019-02-07T21:00:32.031Z,119.93
2019-02-07T21:02:59.811Z,107.57
2019-02-07T21:05:28.645Z,111.23
2019-02-07T21:07:56.271Z,107.47
2019-02-07T21:10:24.628Z,107.80
2019-02-07T21:12:52.170Z,103.60
2019-02-07T21:15:20.176Z,108.13
2019-02-07T21:17:47.867Z,106.30
2019-02-07T21:20:21.044Z,106.00
2019-02-07T21:22:49.157Z,109.23
2019-02-07T21:25:19.011Z,112.77
2019-02-07T21:27:46.510Z,120.23
2019-02-07T21:30:17.316Z,104.33
2019-02-07T21:32:45.129Z,107.83
2019-02-07T21:35:14.764Z,124.17
2019-02-07T21:37:42.217Z,115.90
2019-02-07T21:40:11.764Z,110.97
2019-02-07T21:42:39.262Z,124.33
2019-02-07T21:45:08.337Z,122.37
2019-02-07T21:47:35.834Z,107.77
2019-02-07T21:50:05.974Z,121.07
2019-02-07T21:52:33.641Z,113.10
2019-02-07T21:55:02.055Z,119.57
2019-02-07T21:57:29.559Z,111.10
2019-02-07T22:00:00.925Z,115.70
2019-02-07T22:02:26.463Z,108.97
2019-02-07T22:04:53.958Z,116.67
2019-02-07T22:07:21.489Z,103.20
2019-02-07T22:09:48.974Z,106.03
2019-02-07T22:12:16.454Z,115.07
2019-02-07T22:14:43.951Z,121.80
2019-02-07T22:17:11.421Z,121.57
2019-02-07T22:19:38.900Z,110.87
2019-02-07T22:22:06.457Z,118.70
2019-02-07T22:24:34.161Z,112.20
2019-02-07T22:27:01.829Z,114.53
2019-02-07T22:29:29.302Z,113.17
2019-02-07T22:31:56.827Z,137.63
2019-02-07T22:34:24.299Z,125.20
2019-02-07T22:36:51.756Z,119.33
2019-02-07T22:39:19.255Z,118.20
2019-02-07T22:41:46.741Z,111.83
2019-02-07T22:44:14.614Z,119.10
2019-02-07T22:46:42.152Z,108.23
2019-02-07T22:49:09.615Z,118.57
2019-02-07T22:51:37.153Z,125.20
2019-02-07T22:54:04.638Z,114.97
2019-02-07T22:56:32.092Z,104.20
2019-02-07T22:58:59.607Z,100.63
2019-02-07T23:01:56.108Z,112.90
2019-02-07T23:04:25.002Z,116.07
2019-02-07T23:06:52.510Z,116.37
2019-02-07T23:09:20.019Z,101.43
2019-02-07T23:11:47.700Z,101.73
2019-02-07T23:14:15.281Z,96.00
2019-02-07T23:16:42.836Z,101.73
2019-02-07T23:19:10.311Z,98.00
2019-02-07T23:21:37.905Z,110.77
2019-02-07T23:24:05.787Z,118.97
2019-02-07T23:26:33.230Z,114.20
2019-02-07T23:29:00.726Z,118.30
2019-02-07T23:31:28.234Z,118.73
2019-02-07T23:33:55.729Z,133.27
2019-02-07T23:36:23.557Z,141.37
2019-02-07T23:38:51.000Z,124.73
2019-02-07T23:41:18.477Z,136.20
2019-02-07T23:43:46.426Z,151.27
2019-02-07T23:46:13.901Z,149.53
2019-02-07T23:48:41.798Z,132.60
2019-02-07T23:51:09.319Z,138.17
2019-02-07T23:53:38.873Z,127.40
2019-02-07T23:56:07.040Z,120.63
2019-02-07T23:58:34.513Z,113.90
